LFBO/TLS METAR and TAF weather

Enter ICAO airport designator
Station Type Date Time Source
LFBO METAR 2019/02/18 04:00 UTC NOAA

LFBO 180400Z AUTO 14011KT CAVOK 09/06 Q1019 TEMPO 13016G27KT


Station Type Date Time Source
LFBO Decoded METAR 2019/02/18 04:00 UTC NOAA

Toulouse / Blagnac, France (LFBO) 43-38N 001-22E 153M
Feb 17, 2019 - 11:00 PM EST / 2019.02.18 0400 UTC
Wind: from the SE (140 degrees) at 13 MPH (11 KT):0
Visibility: greater than 7 mile(s):0
Temperature: 48 F (9 C)
Dew Point: 42 F (6 C)
Relative Humidity: 81%
Pressure (altimeter): 30.09 in. Hg (1019 hPa)
ob: LFBO 180400Z AUTO 14011KT CAVOK 09/06 Q1019 TEMPO 13016G27KT
cycle: 4

Station Type Date Time Source
LFBO TAF 2019/02/17 18:46 UTC NOAA

TAF
AMD LFBO 171839Z 1718/1824 13015KT CAVOK PROB40
TEMPO 1718/1724 13018G28KT
BECMG 1822/1824 BKN013


Example: see airport list